createdAt,value
2022-12-27T00:01:35.030Z,2.50
2022-12-27T00:04:02.086Z,1.80
2022-12-27T00:06:30.219Z,1.77
2022-12-27T00:08:58.281Z,1.63
2022-12-27T00:11:27.692Z,2.10
2022-12-27T00:13:54.582Z,1.73
2022-12-27T00:16:21.922Z,1.90
2022-12-27T00:18:49.795Z,2.40
2022-12-27T00:21:17.843Z,2.23
2022-12-27T00:23:47.240Z,1.90
2022-12-27T00:26:18.635Z,2.13
2022-12-27T00:28:46.023Z,1.90
2022-12-27T00:31:14.060Z,1.77
2022-12-27T00:33:42.980Z,2.30
2022-12-27T00:36:14.114Z,1.80
2022-12-27T00:38:41.084Z,2.60
2022-12-27T00:41:08.505Z,2.43
2022-12-27T00:43:36.013Z,1.60
2022-12-27T00:46:03.623Z,2.27
2022-12-27T00:48:30.895Z,2.80
2022-12-27T00:51:06.073Z,2.33
2022-12-27T00:53:34.155Z,2.23
2022-12-27T00:56:01.763Z,2.00
2022-12-27T00:58:28.931Z,2.87
2022-12-27T01:00:56.064Z,2.30
2022-12-27T01:03:23.029Z,2.10
2022-12-27T01:05:50.037Z,1.80
2022-12-27T01:08:17.077Z,1.97
2022-12-27T01:10:44.004Z,2.30
2022-12-27T01:13:11.137Z,2.10
2022-12-27T01:15:42.142Z,2.40
2022-12-27T01:18:09.066Z,1.83
2022-12-27T01:20:38.446Z,2.53
2022-12-27T01:23:05.432Z,2.73
2022-12-27T01:25:32.664Z,2.30
2022-12-27T01:27:59.616Z,2.73
2022-12-27T01:30:26.886Z,4.50
2022-12-27T01:32:55.932Z,2.30
2022-12-27T01:35:22.985Z,2.50
2022-12-27T01:37:49.881Z,2.53
2022-12-27T01:40:16.759Z,2.90
2022-12-27T01:42:52.598Z,3.00
2022-12-27T01:45:36.857Z,3.00
2022-12-27T01:48:23.409Z,3.47
2022-12-27T01:51:00.710Z,3.50
2022-12-27T01:53:33.726Z,3.13
2022-12-27T01:56:09.611Z,2.20
2022-12-27T01:58:56.002Z,2.67
2022-12-27T02:01:27.946Z,2.97
2022-12-27T02:04:03.353Z,2.90
2022-12-27T02:06:32.826Z,2.80
2022-12-27T02:09:10.619Z,2.80
2022-12-27T02:11:53.874Z,2.20
2022-12-27T02:14:43.134Z,2.80
2022-12-27T02:17:16.523Z,2.90
2022-12-27T02:20:07.320Z,2.57
2022-12-27T02:23:39.914Z,3.37
2022-12-27T02:26:33.932Z,2.87
2022-12-27T02:29:39.123Z,3.60
2022-12-27T02:32:25.108Z,3.70
2022-12-27T02:35:06.108Z,3.37
2022-12-27T02:37:38.329Z,3.40
2022-12-27T02:40:28.143Z,3.90
2022-12-27T02:43:14.557Z,3.57
2022-12-27T02:46:26.515Z,3.10
2022-12-27T02:49:14.362Z,3.60
2022-12-27T02:52:50.459Z,3.70
2022-12-27T02:55:38.848Z,3.00
2022-12-27T02:58:29.436Z,3.40
2022-12-27T03:01:38.318Z,3.30
2022-12-27T03:04:39.374Z,3.13
2022-12-27T03:07:42.014Z,3.60
2022-12-27T03:10:50.476Z,3.43
2022-12-27T03:14:13.949Z,3.13
2022-12-27T03:16:56.117Z,3.83
2022-12-27T03:19:57.675Z,3.47
2022-12-27T03:22:46.035Z,4.10
2022-12-27T03:25:43.701Z,3.63
2022-12-27T03:28:39.873Z,3.20
2022-12-27T03:31:36.211Z,3.43
2022-12-27T03:34:27.426Z,3.70
2022-12-27T03:37:15.172Z,3.00
2022-12-27T03:39:55.853Z,3.30
2022-12-27T03:42:47.064Z,3.60
2022-12-27T03:45:14.599Z,3.50
2022-12-27T03:48:03.352Z,3.53
2022-12-27T03:50:36.543Z,3.20
2022-12-27T03:53:21.505Z,2.80
2022-12-27T03:55:48.834Z,3.47
2022-12-27T03:58:15.962Z,3.60
2022-12-27T04:00:42.824Z,4.10
2022-12-27T04:03:10.478Z,3.50
2022-12-27T04:05:37.468Z,4.90
2022-12-27T04:08:22.813Z,2.77
2022-12-27T04:11:08.278Z,3.93
2022-12-27T04:13:53.794Z,3.10
2022-12-27T04:16:39.450Z,3.33
2022-12-27T04:19:25.129Z,4.10
2022-12-27T04:22:10.840Z,3.23
2022-12-27T04:24:56.482Z,3.63
2022-12-27T04:27:41.805Z,3.37
2022-12-27T04:30:27.992Z,3.87
2022-12-27T04:33:13.299Z,3.40
2022-12-27T04:35:40.131Z,4.33
2022-12-27T04:38:07.000Z,4.00
2022-12-27T04:40:52.651Z,3.03
2022-12-27T04:43:38.250Z,4.27
2022-12-27T04:46:23.650Z,4.00
2022-12-27T04:49:09.140Z,3.93
2022-12-27T04:51:54.653Z,3.40
2022-12-27T04:54:41.645Z,3.30
2022-12-27T04:57:08.525Z,4.30
2022-12-27T04:59:54.161Z,3.57
2022-12-27T05:02:21.594Z,3.93
2022-12-27T05:04:49.177Z,3.40
2022-12-27T05:07:35.381Z,3.70
2022-12-27T05:10:23.700Z,3.70
2022-12-27T05:13:09.481Z,3.50
2022-12-27T05:15:36.492Z,3.70
2022-12-27T05:18:03.685Z,4.40
2022-12-27T05:20:31.146Z,4.17
2022-12-27T05:23:16.507Z,3.50
2022-12-27T05:25:45.805Z,4.30
2022-12-27T05:28:13.501Z,4.60
2022-12-27T05:30:42.777Z,3.40
2022-12-27T05:33:09.899Z,4.00
2022-12-27T05:35:36.844Z,3.60
2022-12-27T05:38:03.971Z,3.83
2022-12-27T05:40:31.071Z,3.87
2022-12-27T05:43:02.034Z,3.40
2022-12-27T05:45:29.662Z,3.30
2022-12-27T05:47:56.668Z,3.20
2022-12-27T05:50:23.587Z,3.00
2022-12-27T05:52:50.715Z,3.20
2022-12-27T05:55:17.853Z,3.13
2022-12-27T05:57:44.789Z,3.43
2022-12-27T06:00:12.687Z,3.33
2022-12-27T06:02:40.931Z,3.43
2022-12-27T06:05:09.173Z,3.50
2022-12-27T06:07:37.374Z,3.40
2022-12-27T06:10:06.593Z,4.43
2022-12-27T06:12:33.518Z,4.17
2022-12-27T06:15:00.386Z,3.77
2022-12-27T06:17:27.307Z,5.10
2022-12-27T06:19:57.242Z,4.00
2022-12-27T06:22:24.680Z,5.37
2022-12-27T06:24:51.609Z,5.43
2022-12-27T06:27:18.559Z,5.40
2022-12-27T06:29:45.428Z,6.03
2022-12-27T06:32:12.512Z,7.23
2022-12-27T06:34:39.381Z,6.27
2022-12-27T06:37:06.272Z,6.33
2022-12-27T06:39:33.212Z,7.13
2022-12-27T06:42:00.099Z,6.30
2022-12-27T06:44:27.091Z,6.93
2022-12-27T06:46:53.978Z,6.73
2022-12-27T06:49:21.014Z,6.70
2022-12-27T06:51:52.606Z,8.03
2022-12-27T06:54:22.693Z,8.43
2022-12-27T06:56:49.774Z,7.40
2022-12-27T06:59:16.651Z,9.57
2022-12-27T07:01:43.795Z,8.60
2022-12-27T07:04:10.975Z,8.37
2022-12-27T07:06:38.783Z,9.17
2022-12-27T07:09:06.557Z,9.20
2022-12-27T07:11:35.392Z,8.53
2022-12-27T07:14:03.011Z,8.50
2022-12-27T07:16:31.176Z,9.07
2022-12-27T07:18:59.388Z,8.43
2022-12-27T07:21:28.817Z,8.53
2022-12-27T07:23:56.620Z,8.20
2022-12-27T07:26:29.923Z,9.30
2022-12-27T07:28:59.527Z,8.93
2022-12-27T07:31:29.940Z,9.73
2022-12-27T07:33:58.428Z,9.67
2022-12-27T07:36:28.624Z,9.93
2022-12-27T07:38:56.012Z,9.20
2022-12-27T07:41:23.421Z,9.47
2022-12-27T07:43:50.442Z,8.90
2022-12-27T07:46:19.920Z,8.47
2022-12-27T07:48:48.071Z,9.47
2022-12-27T07:51:16.603Z,8.30
2022-12-27T07:53:44.145Z,9.00
2022-12-27T07:56:13.896Z,8.87
2022-12-27T07:58:42.875Z,9.17
2022-12-27T08:01:11.170Z,9.00
2022-12-27T08:03:39.032Z,9.50
2022-12-27T08:06:06.941Z,8.43
2022-12-27T08:08:45.077Z,8.60
2022-12-27T08:11:12.119Z,9.43
2022-12-27T08:13:39.729Z,10.53
2022-12-27T08:16:07.277Z,9.80
2022-12-27T08:18:34.180Z,9.60
2022-12-27T08:21:01.098Z,10.50
2022-12-27T08:23:27.947Z,10.20
2022-12-27T08:25:54.836Z,8.37
2022-12-27T08:28:21.848Z,10.63
2022-12-27T08:30:48.988Z,11.00
2022-12-27T08:33:16.137Z,9.07
2022-12-27T08:35:54.125Z,9.90
2022-12-27T08:38:22.175Z,8.80
2022-12-27T08:40:49.316Z,9.83
2022-12-27T08:43:16.314Z,8.43
2022-12-27T08:45:43.331Z,7.60
2022-12-27T08:48:10.310Z,7.00
2022-12-27T08:50:37.335Z,7.10
2022-12-27T08:53:06.028Z,7.40
2022-12-27T08:55:34.443Z,6.90
2022-12-27T08:58:10.541Z,6.77
2022-12-27T09:00:40.796Z,6.20
2022-12-27T09:03:08.706Z,5.67
2022-12-27T09:05:41.452Z,5.40
2022-12-27T09:08:09.229Z,6.07
2022-12-27T09:10:36.130Z,6.27
2022-12-27T09:13:03.350Z,6.40
2022-12-27T09:15:30.347Z,5.83
2022-12-27T09:17:57.490Z,7.53
2022-12-27T09:20:24.783Z,5.50
2022-12-27T09:22:52.261Z,5.40
2022-12-27T09:25:19.395Z,5.30
2022-12-27T09:27:46.308Z,5.43
2022-12-27T09:30:13.709Z,5.13
2022-12-27T09:32:40.894Z,6.30
2022-12-27T09:35:08.206Z,5.30
2022-12-27T09:37:35.074Z,5.60
2022-12-27T09:40:02.106Z,6.60
2022-12-27T09:43:20.961Z,6.00
2022-12-27T09:45:57.609Z,6.17
2022-12-27T09:48:35.203Z,5.67
2022-12-27T09:51:18.067Z,4.80
2022-12-27T09:54:07.310Z,6.20
2022-12-27T09:56:54.563Z,5.00
2022-12-27T09:59:38.579Z,4.47
2022-12-27T10:02:25.400Z,4.33
2022-12-27T10:05:19.867Z,5.00
2022-12-27T10:08:10.673Z,4.20
2022-12-27T10:11:37.658Z,3.50
2022-12-27T10:14:48.981Z,3.80
2022-12-27T10:17:52.632Z,4.07
2022-12-27T10:20:44.456Z,4.30
2022-12-27T10:23:16.304Z,5.97
2022-12-27T10:25:46.209Z,3.90
2022-12-27T10:28:17.652Z,4.00
2022-12-27T10:30:45.600Z,3.63
2022-12-27T10:33:29.461Z,3.10
2022-12-27T10:35:57.890Z,4.17
2022-12-27T10:38:29.309Z,3.17
2022-12-27T10:41:29.420Z,4.13
2022-12-27T10:43:56.372Z,4.70
2022-12-27T10:46:32.372Z,3.87
2022-12-27T10:49:21.048Z,3.90
2022-12-27T10:51:49.978Z,3.33
2022-12-27T10:54:22.430Z,4.00
2022-12-27T10:56:49.776Z,3.73
2022-12-27T10:59:25.333Z,3.37
2022-12-27T11:02:21.745Z,3.70
2022-12-27T11:05:00.930Z,3.20
2022-12-27T11:07:33.172Z,3.90
2022-12-27T11:10:33.898Z,4.00
2022-12-27T11:13:18.462Z,3.90
2022-12-27T11:15:58.750Z,3.57
2022-12-27T11:18:26.674Z,3.37
2022-12-27T11:20:56.234Z,3.90
2022-12-27T11:23:25.725Z,3.63
2022-12-27T11:25:54.254Z,3.37
2022-12-27T11:28:30.044Z,3.60
2022-12-27T11:31:16.248Z,3.90
2022-12-27T11:34:03.582Z,2.70
2022-12-27T11:36:38.452Z,3.30
2022-12-27T11:39:05.730Z,3.77
2022-12-27T11:41:50.585Z,2.90
2022-12-27T11:44:28.200Z,2.63
2022-12-27T11:47:28.949Z,3.23
2022-12-27T11:50:10.363Z,3.13
2022-12-27T11:53:54.208Z,2.73
2022-12-27T11:56:32.761Z,2.70
2022-12-27T11:59:22.648Z,2.70
2022-12-27T12:02:25.204Z,2.63
2022-12-27T12:05:38.986Z,2.97
2022-12-27T12:08:47.395Z,2.73
2022-12-27T12:12:13.007Z,3.17
2022-12-27T12:26:21.202Z,2.30
2022-12-27T12:29:11.219Z,2.90
2022-12-27T12:32:24.167Z,2.60
2022-12-27T12:35:25.140Z,2.80
2022-12-27T12:38:12.755Z,2.73
2022-12-27T12:41:30.472Z,2.57
2022-12-27T12:44:44.181Z,2.43
2022-12-27T12:47:43.257Z,2.27
2022-12-27T12:50:31.993Z,2.20
2022-12-27T12:53:21.942Z,2.43
2022-12-27T12:56:29.035Z,1.90
2022-12-27T12:59:19.134Z,2.77
2022-12-27T13:02:28.004Z,2.23
2022-12-27T13:05:30.383Z,2.23
2022-12-27T13:08:15.807Z,2.27
2022-12-27T13:11:19.446Z,1.87
2022-12-27T13:14:06.889Z,2.20
2022-12-27T13:17:05.389Z,2.03
2022-12-27T13:19:56.380Z,2.97
2022-12-27T13:23:04.776Z,2.30
2022-12-27T13:26:05.636Z,1.93
2022-12-27T13:29:02.104Z,2.87
2022-12-27T13:31:48.210Z,2.80
2022-12-27T13:34:39.820Z,2.43
2022-12-27T13:37:50.775Z,2.90
2022-12-27T13:41:08.223Z,3.07
2022-12-27T13:44:23.986Z,2.43
2022-12-27T13:47:34.547Z,2.47
2022-12-27T13:50:31.101Z,2.60
2022-12-27T13:53:40.580Z,2.23
2022-12-27T14:05:18.815Z,2.57
2022-12-27T14:08:04.187Z,4.07
2022-12-27T14:10:47.308Z,2.80
2022-12-27T14:13:47.552Z,2.70
2022-12-27T14:16:46.657Z,3.00
2022-12-27T14:19:32.643Z,3.03
2022-12-27T14:22:37.503Z,3.77
2022-12-27T14:25:44.712Z,4.23
2022-12-27T14:29:01.483Z,3.33
2022-12-27T14:32:04.640Z,3.77
2022-12-27T14:35:30.273Z,3.33
2022-12-27T14:38:30.779Z,4.30
2022-12-27T14:41:03.676Z,4.93
2022-12-27T14:44:04.158Z,4.30
2022-12-27T14:47:14.622Z,4.17
2022-12-27T14:56:34.428Z,5.47
2022-12-27T15:08:32.548Z,3.33
2022-12-27T15:11:25.094Z,4.23
2022-12-27T15:14:29.331Z,4.43
2022-12-27T15:17:21.486Z,3.33
2022-12-27T15:20:43.944Z,3.50
2022-12-27T15:23:31.271Z,3.87
2022-12-27T15:26:56.686Z,4.77
2022-12-27T15:29:51.047Z,3.77
2022-12-27T15:32:52.654Z,4.40
2022-12-27T15:35:59.753Z,3.70
2022-12-27T15:38:56.255Z,4.67
2022-12-27T15:41:46.365Z,3.87
2022-12-27T15:44:16.251Z,3.70
2022-12-27T15:46:43.162Z,3.80
2022-12-27T15:49:47.484Z,3.80
2022-12-27T15:52:40.286Z,3.37
2022-12-27T15:56:01.841Z,3.53
2022-12-27T15:58:29.692Z,3.10
2022-12-27T16:01:33.244Z,3.00
2022-12-27T16:04:39.976Z,2.80
2022-12-27T16:07:35.974Z,2.60
2022-12-27T16:10:27.067Z,2.93
2022-12-27T16:12:58.495Z,3.67
2022-12-27T16:15:55.462Z,3.53
2022-12-27T16:18:43.496Z,3.03
2022-12-27T16:21:22.695Z,3.00
2022-12-27T16:23:54.596Z,3.23
2022-12-27T16:26:50.627Z,3.20
2022-12-27T16:29:17.986Z,3.70
2022-12-27T16:31:51.812Z,4.00
2022-12-27T16:34:25.654Z,3.30
2022-12-27T16:36:54.867Z,3.30
2022-12-27T16:39:53.339Z,3.40
2022-12-27T16:42:28.070Z,3.00
2022-12-27T16:45:03.138Z,2.37
2022-12-27T16:47:37.324Z,2.57
2022-12-27T16:50:40.954Z,3.03
2022-12-27T16:53:35.064Z,2.67
2022-12-27T16:56:20.156Z,2.50
2022-12-27T16:58:47.104Z,2.40
2022-12-27T17:01:51.759Z,2.43
2022-12-27T17:04:56.250Z,2.13
2022-12-27T17:07:50.740Z,1.83
2022-12-27T17:10:43.119Z,2.60
2022-12-27T17:13:51.102Z,3.60
2022-12-27T17:16:32.315Z,3.43
2022-12-27T17:19:04.579Z,2.83
2022-12-27T17:21:39.404Z,3.27
2022-12-27T17:24:12.888Z,2.77
2022-12-27T17:27:19.940Z,3.17
2022-12-27T17:30:10.519Z,2.30
2022-12-27T17:33:33.188Z,2.80
2022-12-27T17:36:33.620Z,3.07
2022-12-27T17:39:18.232Z,4.40
2022-12-27T17:42:44.348Z,4.60
2022-12-27T17:45:52.701Z,3.73
2022-12-27T17:48:39.935Z,3.53
2022-12-27T17:51:13.154Z,2.93
2022-12-27T17:54:10.662Z,3.30
2022-12-27T17:57:24.896Z,3.07
2022-12-27T17:59:52.664Z,1.80
2022-12-27T18:02:34.528Z,2.10
2022-12-27T18:05:06.061Z,2.47
2022-12-27T18:07:34.733Z,2.33
2022-12-27T18:10:23.718Z,3.17
2022-12-27T18:12:54.754Z,2.53
2022-12-27T18:15:34.685Z,2.60
2022-12-27T18:18:07.812Z,2.30
2022-12-27T18:20:37.763Z,2.60
2022-12-27T18:23:17.820Z,2.40
2022-12-27T18:26:13.111Z,2.60
2022-12-27T18:28:42.015Z,2.80
2022-12-27T18:31:36.709Z,2.80
2022-12-27T18:34:18.763Z,3.30
2022-12-27T18:37:00.740Z,2.70
2022-12-27T18:39:46.865Z,3.53
2022-12-27T18:42:51.774Z,3.10
2022-12-27T18:45:29.725Z,2.63
2022-12-27T18:48:00.326Z,2.23
2022-12-27T18:50:31.570Z,2.07
2022-12-27T18:53:22.855Z,3.50
2022-12-27T18:56:07.551Z,4.40
2022-12-27T18:58:35.118Z,3.27
2022-12-27T19:01:06.958Z,2.77
2022-12-27T19:03:40.120Z,2.93
2022-12-27T19:06:13.439Z,3.07
2022-12-27T19:08:48.057Z,2.23
2022-12-27T19:11:27.585Z,1.90
2022-12-27T19:13:59.686Z,2.60
2022-12-27T19:16:33.316Z,1.67
2022-12-27T19:19:23.754Z,2.00
2022-12-27T19:21:50.697Z,2.40
2022-12-27T19:24:33.090Z,2.60
2022-12-27T19:27:14.783Z,1.70
2022-12-27T19:29:52.449Z,2.03
2022-12-27T19:32:30.585Z,2.63
2022-12-27T19:34:59.892Z,2.23
2022-12-27T19:37:29.294Z,2.23
2022-12-27T19:39:57.277Z,2.13
2022-12-27T19:42:33.317Z,2.00
2022-12-27T19:45:02.480Z,2.17
2022-12-27T19:47:29.549Z,2.10
2022-12-27T19:49:57.676Z,3.00
2022-12-27T19:52:27.375Z,2.20
2022-12-27T19:55:01.926Z,2.60
2022-12-27T19:57:29.004Z,2.40
2022-12-27T19:59:56.076Z,2.33
2022-12-27T20:02:23.967Z,2.27
2022-12-27T20:04:50.927Z,2.47
2022-12-27T20:07:23.294Z,2.50
2022-12-27T20:09:50.292Z,2.13
2022-12-27T20:12:17.345Z,1.90
2022-12-27T20:14:44.464Z,1.93
2022-12-27T20:17:11.349Z,1.90
2022-12-27T20:19:38.289Z,2.17
2022-12-27T20:22:06.012Z,1.70
2022-12-27T20:24:35.126Z,2.57
2022-12-27T20:27:04.394Z,1.80
2022-12-27T20:29:33.088Z,2.30
2022-12-27T20:32:00.868Z,2.20
2022-12-27T20:34:27.780Z,2.20
2022-12-27T20:36:55.588Z,2.40
2022-12-27T20:39:22.559Z,3.17
2022-12-27T20:41:50.167Z,2.80
2022-12-27T20:44:17.256Z,2.37
2022-12-27T20:46:44.255Z,2.60
2022-12-27T20:49:11.229Z,2.27
2022-12-27T20:51:38.273Z,2.17
2022-12-27T20:54:05.313Z,1.83
2022-12-27T20:56:32.384Z,1.90
2022-12-27T20:58:59.388Z,1.63
2022-12-27T21:01:27.176Z,2.20
2022-12-27T21:03:56.245Z,1.60
2022-12-27T21:06:29.155Z,1.80
2022-12-27T21:08:58.367Z,1.90
2022-12-27T21:11:33.453Z,2.20
2022-12-27T21:14:01.849Z,2.40
2022-12-27T21:16:30.922Z,1.83
2022-12-27T21:18:58.211Z,2.30
2022-12-27T21:21:28.749Z,2.03
2022-12-27T21:23:59.981Z,3.30
2022-12-27T21:26:29.969Z,2.20
2022-12-27T21:28:58.874Z,2.00
2022-12-27T21:31:26.465Z,1.87
2022-12-27T21:33:53.537Z,1.73
2022-12-27T21:36:23.067Z,1.80
2022-12-27T21:38:50.309Z,2.00
2022-12-27T21:41:29.158Z,1.53
2022-12-27T21:43:56.496Z,2.20
2022-12-27T21:46:26.118Z,2.07
2022-12-27T21:49:01.475Z,1.80
2022-12-27T21:51:30.368Z,2.20
2022-12-27T21:53:57.717Z,2.03
2022-12-27T21:56:25.927Z,1.87
2022-12-27T21:58:57.045Z,2.47
2022-12-27T22:01:50.053Z,2.70
2022-12-27T22:04:19.942Z,3.47
2022-12-27T22:06:47.699Z,1.70
2022-12-27T22:09:15.512Z,1.60
2022-12-27T22:11:42.704Z,1.77
2022-12-27T22:14:09.598Z,1.80
2022-12-27T22:16:38.417Z,1.93
2022-12-27T22:19:10.348Z,1.63
2022-12-27T22:21:38.802Z,2.30
2022-12-27T22:24:06.856Z,2.13
2022-12-27T22:26:39.739Z,1.70
2022-12-27T22:29:08.805Z,1.57
2022-12-27T22:31:38.282Z,1.80
2022-12-27T22:34:06.472Z,1.67
2022-12-27T22:36:34.524Z,1.70
2022-12-27T22:39:02.675Z,1.80
2022-12-27T22:41:31.975Z,2.00
2022-12-27T22:44:10.471Z,1.40
2022-12-27T22:49:24.465Z,1.70
2022-12-27T22:51:51.419Z,2.07
2022-12-27T22:54:18.426Z,1.80
2022-12-27T22:56:45.367Z,1.87
2022-12-27T22:59:14.893Z,2.23
2022-12-27T23:01:43.065Z,1.53
2022-12-27T23:04:13.448Z,1.63
2022-12-27T23:06:41.032Z,1.70
2022-12-27T23:09:08.805Z,1.70
2022-12-27T23:11:38.192Z,1.77
2022-12-27T23:14:10.013Z,1.90
2022-12-27T23:16:43.130Z,1.80
2022-12-27T23:19:11.439Z,1.90
2022-12-27T23:21:38.548Z,1.43
2022-12-27T23:24:06.345Z,1.50
2022-12-27T23:26:33.411Z,1.93
2022-12-27T23:29:00.324Z,1.60
2022-12-27T23:31:27.686Z,1.50
2022-12-27T23:33:54.735Z,1.80
2022-12-27T23:36:22.114Z,1.60
2022-12-27T23:38:49.965Z,2.67
2022-12-27T23:41:22.816Z,1.37
2022-12-27T23:43:53.298Z,1.73
2022-12-27T23:46:39.339Z,1.87
2022-12-27T23:49:06.288Z,1.90
2022-12-27T23:51:33.287Z,1.70
2022-12-27T23:54:00.286Z,1.53
2022-12-27T23:56:30.319Z,1.13
2022-12-27T23:58:59.394Z,1.63
